Ballinafad, Ireland
Current Conditions -  °F | °C
As of 10:30 AM on Tuesday 21 Oct 2014 (Local Time) from EISG Reporting Station
Broken Clouds Broken Clouds  
Wind Chill: 50°   Ceiling: 3500
Heat Index: 50°   Visibility: 6mi
Dew Point: 39°   Wind: 36mph
Humidity: 66%   Direction: 310°NW
Pressure: 29.88"   Gusts: 48mph
Location:  54.03°N, 8.33°W
Report Text: EISG 211030Z 31031G42KT 9000 SCT016 SCT021 BKN035 10/04 Q1012
Loading
Personal Weather Stations






























Interactive Weather Map
Tropical Storm Tracking
New forecast layout! Learn more

10-Day Weather Forecast

Advertisements
Track Severe Weather on mobile